createdAt,value
2017-11-10T00:02:13.317Z,36.60
2017-11-10T00:04:51.357Z,35.97
2017-11-10T00:07:29.654Z,37.28
2017-11-10T00:10:08.121Z,34.15
2017-11-10T00:12:41.801Z,32.25
2017-11-10T00:15:16.298Z,40.58
2017-11-10T00:17:54.897Z,31.77
2017-11-10T00:20:33.296Z,38.10
2017-11-10T00:23:06.524Z,34.20
2017-11-10T00:25:46.168Z,36.20
2017-11-10T00:28:25.382Z,33.95
2017-11-10T00:30:58.744Z,31.20
2017-11-10T00:33:37.162Z,35.55
2017-11-10T00:36:17.571Z,33.08
2017-11-10T00:38:57.640Z,34.67
2017-11-10T00:41:33.449Z,32.47
2017-11-10T00:44:12.861Z,32.92
2017-11-10T00:46:51.472Z,33.67
2017-11-10T00:49:25.321Z,28.33
2017-11-10T00:52:05.565Z,31.10
2017-11-10T00:54:46.586Z,29.40
2017-11-10T00:57:20.175Z,27.90
2017-11-10T00:59:54.658Z,27.50
2017-11-10T01:02:27.644Z,29.42
2017-11-10T01:05:08.680Z,27.08
2017-11-10T01:07:47.152Z,27.90
2017-11-10T01:10:26.582Z,27.45
2017-11-10T01:13:00.701Z,26.70
2017-11-10T01:15:38.639Z,27.58
2017-11-10T01:18:20.480Z,29.90
2017-11-10T01:21:00.422Z,30.92
2017-11-10T01:23:39.133Z,30.52
2017-11-10T01:26:13.747Z,29.30
2017-11-10T01:28:46.782Z,31.50
2017-11-10T01:31:24.462Z,33.20
2017-11-10T01:34:04.386Z,28.08
2017-11-10T01:36:38.419Z,32.22
2017-11-10T01:39:12.151Z,28.58
2017-11-10T01:41:45.356Z,28.83
2017-11-10T01:44:27.123Z,30.48
2017-11-10T01:47:00.305Z,32.05
2017-11-10T01:49:56.541Z,35.97
2017-11-10T01:52:30.277Z,30.95
2017-11-10T01:55:09.841Z,34.75
2017-11-10T01:57:44.193Z,30.35
2017-11-10T02:00:24.118Z,34.00
2017-11-10T02:03:02.377Z,30.40
2017-11-10T02:05:41.315Z,34.40
2017-11-10T02:08:22.003Z,35.30
2017-11-10T02:11:00.641Z,32.30
2017-11-10T02:13:42.615Z,33.85
2017-11-10T02:16:21.949Z,35.40
2017-11-10T02:19:00.549Z,33.65
2017-11-10T02:21:39.986Z,32.35
2017-11-10T02:24:21.927Z,34.53
2017-11-10T02:27:00.750Z,34.80
2017-11-10T02:29:39.205Z,34.88
2017-11-10T02:32:17.816Z,36.60
2017-11-10T02:34:58.694Z,35.67
2017-11-10T02:37:37.235Z,34.45
2017-11-10T02:40:16.944Z,36.35
2017-11-10T02:42:55.155Z,34.58
2017-11-10T02:45:32.951Z,33.38
2017-11-10T02:48:06.691Z,35.70
2017-11-10T02:50:40.883Z,35.45
2017-11-10T02:53:13.978Z,34.53
2017-11-10T02:55:47.908Z,32.97
2017-11-10T02:58:25.627Z,38.05
2017-11-10T03:01:06.363Z,36.13
2017-11-10T03:03:46.555Z,36.38
2017-11-10T03:06:26.199Z,34.03
2017-11-10T03:09:04.603Z,30.65
2017-11-10T03:11:41.911Z,29.73
2017-11-10T03:14:19.218Z,35.08
2017-11-10T03:16:58.007Z,35.65
2017-11-10T03:19:34.993Z,31.37
2017-11-10T03:22:16.228Z,31.52
2017-11-10T03:24:53.755Z,29.80
2017-11-10T03:27:31.198Z,35.25
2017-11-10T03:30:11.156Z,33.67
2017-11-10T03:32:50.531Z,32.47
2017-11-10T03:35:29.189Z,33.08
2017-11-10T03:38:10.103Z,31.15
2017-11-10T03:40:48.996Z,29.75
2017-11-10T03:43:28.480Z,30.80
2017-11-10T03:46:07.085Z,32.42
2017-11-10T03:48:45.530Z,32.17
2017-11-10T03:51:20.111Z,31.77
2017-11-10T03:54:00.276Z,37.13
2017-11-10T03:56:41.797Z,31.77
2017-11-10T03:59:19.843Z,30.50
2017-11-10T04:01:53.880Z,28.85
2017-11-10T04:04:32.811Z,31.30
2017-11-10T04:07:13.199Z,31.58
2017-11-10T04:09:52.568Z,32.03
2017-11-10T04:12:32.043Z,32.40
2017-11-10T04:15:05.533Z,36.30
2017-11-10T04:17:39.153Z,33.30
2017-11-10T04:20:12.240Z,36.60
2017-11-10T04:22:46.419Z,37.97
2017-11-10T04:25:23.354Z,34.60
2017-11-10T04:27:57.506Z,35.58
2017-11-10T04:30:42.275Z,32.22
2017-11-10T04:33:21.343Z,36.40
2017-11-10T04:35:56.415Z,35.58
2017-11-10T04:38:29.369Z,39.05
2017-11-10T04:41:03.863Z,34.05
2017-11-10T04:43:43.606Z,35.33
2017-11-10T04:46:23.502Z,35.97
2017-11-10T04:48:57.563Z,32.67
2017-11-10T04:51:31.348Z,32.47
2017-11-10T04:54:08.541Z,32.75
2017-11-10T04:56:52.076Z,33.08
2017-11-10T04:59:30.682Z,33.83
2017-11-10T05:02:05.736Z,31.35
2017-11-10T05:04:41.002Z,34.25
2017-11-10T05:08:41.589Z,32.63
2017-11-10T05:11:19.882Z,29.55
2017-11-10T05:13:58.709Z,33.10
2017-11-10T05:16:32.837Z,30.60
2017-11-10T05:19:10.789Z,29.70
2017-11-10T05:21:47.930Z,30.00
2017-11-10T05:24:27.688Z,30.10
2017-11-10T05:27:02.061Z,29.58
2017-11-10T05:29:40.401Z,29.23
2017-11-10T05:32:19.448Z,28.70
2017-11-10T05:34:58.833Z,30.25
2017-11-10T05:37:36.452Z,28.23
2017-11-10T05:40:10.407Z,31.95
2017-11-10T05:42:50.238Z,27.52
2017-11-10T05:45:29.483Z,29.58
2017-11-10T05:48:07.997Z,31.58
2017-11-10T05:50:48.279Z,28.00
2017-11-10T05:53:21.173Z,30.17
2017-11-10T05:55:58.910Z,29.98
2017-11-10T05:58:37.379Z,31.10
2017-11-10T06:01:19.638Z,29.20
2017-11-10T06:03:58.593Z,29.55
2017-11-10T06:06:37.025Z,28.67
2017-11-10T06:09:13.857Z,27.73
2017-11-10T06:11:47.706Z,27.58
2017-11-10T06:14:26.597Z,28.92
2017-11-10T06:17:09.946Z,26.85
2017-11-10T06:19:48.987Z,29.00
2017-11-10T06:22:28.093Z,26.80
2017-11-10T06:25:08.078Z,29.60
2017-11-10T06:27:45.444Z,30.02
2017-11-10T06:30:18.408Z,32.33
2017-11-10T06:32:52.265Z,31.58
2017-11-10T06:35:27.975Z,31.00
2017-11-10T06:38:08.497Z,31.50
2017-11-10T06:40:42.241Z,30.88
2017-11-10T06:43:15.807Z,33.17
2017-11-10T06:45:54.816Z,32.53
2017-11-10T06:48:34.916Z,29.85
2017-11-10T06:51:14.367Z,32.38
2017-11-10T06:53:53.707Z,28.98
2017-11-10T06:56:33.789Z,32.05
2017-11-10T06:59:16.721Z,32.65
2017-11-10T07:01:57.453Z,30.30
2017-11-10T07:04:42.484Z,32.85
2017-11-10T07:07:21.732Z,34.45
2017-11-10T07:10:03.302Z,33.28
2017-11-10T07:12:37.387Z,31.65
2017-11-10T07:15:15.859Z,31.98
2017-11-10T07:17:55.731Z,33.10
2017-11-10T07:20:36.205Z,30.37
2017-11-10T07:23:10.025Z,28.98
2017-11-10T07:25:50.479Z,29.90
2017-11-10T07:28:31.654Z,35.70
2017-11-10T07:31:08.136Z,29.92
2017-11-10T07:33:51.916Z,28.50
2017-11-10T07:36:29.277Z,27.55
2017-11-10T07:39:08.257Z,27.33
2017-11-10T07:41:47.294Z,26.50
2017-11-10T07:44:24.655Z,26.45
2017-11-10T07:47:05.792Z,27.15
2017-11-10T07:49:40.854Z,26.95
2017-11-10T07:52:23.415Z,25.30
2017-11-10T07:55:06.564Z,26.42
2017-11-10T07:57:41.146Z,26.12
2017-11-10T08:00:17.701Z,27.13
2017-11-10T08:03:00.361Z,26.42
2017-11-10T08:05:39.917Z,24.67
2017-11-10T08:08:18.517Z,29.02
2017-11-10T08:10:58.957Z,25.15
2017-11-10T08:13:39.842Z,23.62
2017-11-10T08:16:24.102Z,24.48
2017-11-10T08:19:05.301Z,25.92
2017-11-10T08:21:48.731Z,23.10
2017-11-10T08:24:28.041Z,24.55
2017-11-10T08:27:07.259Z,25.48
2017-11-10T08:29:50.301Z,23.62
2017-11-10T08:32:32.446Z,22.45
2017-11-10T08:35:13.206Z,23.42
2017-11-10T08:37:52.582Z,22.90
2017-11-10T08:40:31.146Z,21.85
2017-11-10T08:43:09.426Z,25.35
2017-11-10T08:45:51.560Z,19.77
2017-11-10T08:48:28.246Z,21.27
2017-11-10T08:51:06.054Z,18.75
2017-11-10T08:53:41.279Z,19.75
2017-11-10T08:56:14.950Z,18.73
2017-11-10T08:58:51.600Z,19.60
2017-11-10T09:01:36.028Z,17.52
2017-11-10T09:04:14.170Z,19.02
2017-11-10T09:06:55.613Z,16.65
2017-11-10T09:09:37.426Z,17.10
2017-11-10T09:12:17.189Z,18.00
2017-11-10T09:14:55.874Z,16.27
2017-11-10T09:17:33.055Z,15.45
2017-11-10T09:20:09.240Z,15.65
2017-11-10T09:22:49.845Z,15.75
2017-11-10T09:25:28.324Z,16.52
2017-11-10T09:28:08.315Z,15.50
2017-11-10T09:30:46.723Z,16.17
2017-11-10T09:33:32.450Z,15.57
2017-11-10T09:36:11.593Z,14.40
2017-11-10T09:38:51.803Z,14.93
2017-11-10T09:41:44.894Z,14.60
2017-11-10T09:44:34.151Z,13.02
2017-11-10T09:50:20.777Z,12.30
2017-11-10T09:53:15.752Z,14.20
2017-11-10T09:55:55.038Z,13.70
2017-11-10T10:01:31.902Z,13.07
2017-11-10T10:04:29.123Z,13.77
2017-11-10T10:07:21.824Z,13.90
2017-11-10T10:10:00.632Z,13.32
2017-11-10T10:12:54.861Z,13.75
2017-11-10T10:15:30.171Z,14.38
2017-11-10T10:18:26.655Z,15.68
2017-11-10T10:21:06.318Z,15.48
2017-11-10T10:23:47.160Z,16.73
2017-11-10T10:26:29.264Z,15.90
2017-11-10T10:29:06.798Z,17.00
2017-11-10T10:31:45.369Z,16.48
2017-11-10T10:34:30.824Z,15.88
2017-11-10T10:37:06.530Z,17.45
2017-11-10T10:39:45.637Z,16.92
2017-11-10T10:42:27.473Z,17.85
2017-11-10T10:45:11.360Z,18.85
2017-11-10T10:47:54.827Z,18.65
2017-11-10T10:50:35.747Z,18.15
2017-11-10T10:53:16.601Z,19.30
2017-11-10T10:55:51.421Z,18.23
2017-11-10T10:58:31.785Z,17.60
2017-11-10T11:01:06.811Z,19.42
2017-11-10T11:03:47.735Z,17.02
2017-11-10T11:06:29.175Z,18.73
2017-11-10T11:09:08.268Z,17.48
2017-11-10T11:11:47.798Z,18.95
2017-11-10T11:14:24.922Z,18.37
2017-11-10T11:17:02.202Z,16.62
2017-11-10T11:19:42.921Z,17.75
2017-11-10T11:22:17.898Z,18.55
2017-11-10T11:25:00.470Z,20.02
2017-11-10T11:27:41.229Z,19.05
2017-11-10T11:30:21.613Z,18.05
2017-11-10T11:33:03.210Z,17.62
2017-11-10T11:35:48.262Z,18.12
2017-11-10T11:38:23.046Z,17.42
2017-11-10T11:41:04.361Z,14.70
2017-11-10T11:43:47.482Z,14.65
2017-11-10T11:46:30.129Z,12.50
2017-11-10T11:49:06.806Z,12.13
2017-11-10T11:51:47.939Z,11.45
2017-11-10T11:54:27.759Z,11.27
2017-11-10T11:57:07.910Z,11.35
2017-11-10T11:59:48.581Z,10.82
2017-11-10T12:02:26.721Z,10.40
2017-11-10T12:05:05.424Z,9.93
2017-11-10T12:07:44.633Z,9.70
2017-11-10T12:10:22.858Z,9.73
2017-11-10T12:13:05.481Z,10.02
2017-11-10T12:15:48.193Z,10.23
2017-11-10T12:18:25.708Z,10.88
2017-11-10T12:21:06.585Z,10.20
2017-11-10T12:23:49.476Z,11.50
2017-11-10T12:26:34.249Z,10.82
2017-11-10T12:29:16.841Z,12.10
2017-11-10T12:31:53.935Z,11.30
2017-11-10T12:34:37.103Z,10.57
2017-11-10T12:37:18.124Z,11.05
2017-11-10T12:39:59.901Z,11.85
2017-11-10T12:42:33.518Z,10.93
2017-11-10T12:45:15.135Z,11.15
2017-11-10T12:47:54.949Z,11.43
2017-11-10T12:50:34.660Z,11.25
2017-11-10T12:53:09.798Z,10.30
2017-11-10T12:55:49.222Z,10.23
2017-11-10T12:58:32.414Z,11.50
2017-11-10T13:01:11.539Z,11.40
2017-11-10T13:03:52.501Z,10.70
2017-11-10T13:06:26.984Z,11.02
2017-11-10T13:09:07.175Z,9.88
2017-11-10T13:11:48.521Z,11.48
2017-11-10T13:14:29.558Z,12.05
2017-11-10T13:17:09.021Z,10.77
2017-11-10T13:19:49.123Z,11.60
2017-11-10T13:22:31.731Z,10.98
2017-11-10T13:25:14.092Z,9.20
2017-11-10T13:27:48.291Z,9.88
2017-11-10T13:30:26.398Z,10.95
2017-11-10T13:33:08.747Z,10.65
2017-11-10T13:35:50.700Z,10.25
2017-11-10T13:38:33.367Z,10.93
2017-11-10T13:41:12.431Z,10.38
2017-11-10T13:43:53.565Z,10.80
2017-11-10T13:46:33.739Z,10.65
2017-11-10T13:49:15.438Z,10.60
2017-11-10T13:51:57.871Z,9.90
2017-11-10T13:54:33.607Z,12.50
2017-11-10T13:57:17.676Z,11.12
2017-11-10T13:59:58.398Z,11.90
2017-11-10T14:02:36.732Z,10.45
2017-11-10T14:05:20.375Z,9.63
2017-11-10T14:07:59.936Z,9.43
2017-11-10T14:10:35.198Z,10.25
2017-11-10T14:13:12.387Z,10.13
2017-11-10T14:15:52.566Z,10.13
2017-11-10T14:18:30.520Z,11.98
2017-11-10T14:21:05.061Z,10.80
2017-11-10T14:23:40.841Z,11.73
2017-11-10T14:26:21.490Z,10.82
2017-11-10T14:29:04.554Z,9.82
2017-11-10T14:31:48.167Z,8.95
2017-11-10T14:34:27.743Z,8.20
2017-11-10T14:37:09.947Z,6.90
2017-11-10T14:39:53.525Z,6.12
2017-11-10T14:42:23.458Z,5.57
2017-11-10T14:45:08.160Z,6.30
2017-11-10T14:47:48.214Z,4.95
2017-11-10T14:50:26.444Z,5.43
2017-11-10T14:53:06.292Z,5.15
2017-11-10T14:55:49.153Z,5.78
2017-11-10T14:58:24.401Z,4.87
2017-11-10T15:01:03.271Z,5.75
2017-11-10T15:03:42.780Z,3.60
2017-11-10T15:06:18.773Z,5.62
2017-11-10T15:09:00.993Z,5.65
2017-11-10T15:11:43.436Z,4.78
2017-11-10T15:14:28.230Z,4.32
2017-11-10T15:17:07.657Z,5.37
2017-11-10T15:19:51.976Z,5.60
2017-11-10T15:22:34.079Z,5.20
2017-11-10T15:25:16.037Z,5.45
2017-11-10T15:27:56.796Z,7.12
2017-11-10T15:30:41.406Z,6.07
2017-11-10T15:33:26.197Z,4.97
2017-11-10T15:36:05.379Z,4.93
2017-11-10T15:38:45.507Z,5.45
2017-11-10T15:41:27.922Z,5.55
2017-11-10T15:44:07.714Z,4.70
2017-11-10T15:46:45.496Z,5.12
2017-11-10T15:49:20.371Z,5.80
2017-11-10T15:52:00.699Z,5.47
2017-11-10T15:54:42.454Z,5.25
2017-11-10T15:57:23.128Z,4.70
2017-11-10T15:59:57.684Z,5.53
2017-11-10T16:02:36.642Z,5.53
2017-11-10T16:05:20.825Z,5.70
2017-11-10T16:08:06.062Z,5.28
2017-11-10T16:10:43.300Z,6.45
2017-11-10T16:13:27.816Z,5.07
2017-11-10T16:16:09.912Z,6.78
2017-11-10T16:18:52.002Z,5.70
2017-11-10T16:21:36.928Z,5.87
2017-11-10T16:24:23.092Z,6.20
2017-11-10T16:27:06.001Z,5.45
2017-11-10T16:29:48.327Z,6.07
2017-11-10T16:32:32.574Z,6.75
2017-11-10T16:35:11.680Z,5.37
2017-11-10T16:37:46.368Z,5.75
2017-11-10T16:40:29.830Z,5.82
2017-11-10T16:43:12.708Z,5.35
2017-11-10T16:45:56.326Z,5.32
2017-11-10T16:48:37.649Z,4.87
2017-11-10T16:51:20.676Z,6.40
2017-11-10T16:54:03.310Z,6.15
2017-11-10T16:56:42.979Z,5.50
2017-11-10T16:59:26.662Z,5.03
2017-11-10T17:02:09.990Z,5.15
2017-11-10T17:04:49.378Z,5.97
2017-11-10T17:07:31.076Z,4.90
2017-11-10T17:10:11.345Z,4.70
2017-11-10T17:12:49.045Z,8.82
2017-11-10T17:15:18.602Z,3.70
2017-11-10T17:17:59.072Z,5.53
2017-11-10T17:20:42.496Z,5.65
2017-11-10T17:23:24.184Z,5.68
2017-11-10T17:26:08.375Z,6.18
2017-11-10T17:28:50.289Z,3.70
2017-11-10T17:31:30.486Z,6.10
2017-11-10T17:34:11.259Z,5.80
2017-11-10T17:36:56.285Z,5.95
2017-11-10T17:39:40.158Z,6.43
2017-11-10T17:42:14.609Z,6.65
2017-11-10T17:44:52.729Z,5.60
2017-11-10T17:47:31.717Z,5.78
2017-11-10T17:50:09.346Z,6.00
2017-11-10T17:52:48.118Z,7.22
2017-11-10T17:55:27.986Z,5.68
2017-11-10T17:58:07.876Z,6.60
2017-11-10T18:00:43.131Z,7.10
2017-11-10T18:03:21.810Z,6.30
2017-11-10T18:06:00.211Z,7.65
2017-11-10T18:08:34.253Z,8.05
2017-11-10T18:11:12.728Z,19.73
2017-11-10T18:13:50.399Z,8.63
2017-11-10T18:16:29.267Z,7.70
2017-11-10T18:19:09.340Z,8.38
2017-11-10T18:21:48.335Z,6.95
2017-11-10T18:24:27.427Z,6.40
2017-11-10T18:27:12.710Z,6.50
2017-11-10T18:29:52.689Z,7.62
2017-11-10T18:32:27.124Z,7.97
2017-11-10T18:35:08.676Z,6.70
2017-11-10T18:37:48.145Z,7.95
2017-11-10T18:40:24.720Z,7.85
2017-11-10T18:43:04.398Z,7.10
2017-11-10T18:45:47.422Z,8.38
2017-11-10T18:48:27.633Z,7.45
2017-11-10T18:51:07.818Z,8.43
2017-11-10T18:53:51.097Z,8.27
2017-11-10T18:56:31.465Z,7.43
2017-11-10T18:59:06.048Z,6.37
2017-11-10T19:01:50.038Z,7.45
2017-11-10T19:04:29.289Z,6.85
2017-11-10T19:07:06.494Z,6.07
2017-11-10T19:09:46.202Z,8.02
2017-11-10T19:12:25.541Z,7.40
2017-11-10T19:14:55.328Z,7.57
2017-11-10T19:17:33.144Z,7.37
2017-11-10T19:20:11.875Z,8.60
2017-11-10T19:22:52.836Z,7.55
2017-11-10T19:25:26.260Z,7.87
2017-11-10T19:28:07.392Z,7.47
2017-11-10T19:30:42.309Z,8.05
2017-11-10T19:33:22.084Z,7.72
2017-11-10T19:36:03.575Z,7.50
2017-11-10T19:38:43.214Z,8.80
2017-11-10T19:41:22.089Z,7.85
2017-11-10T19:44:00.181Z,7.72
2017-11-10T19:46:29.499Z,14.85
2017-11-10T19:49:08.725Z,6.62
2017-11-10T19:51:50.095Z,6.22
2017-11-10T19:54:28.571Z,6.37
2017-11-10T19:57:11.883Z,7.93
2017-11-10T19:59:54.688Z,8.70
2017-11-10T20:02:36.044Z,7.60
2017-11-10T20:05:19.235Z,7.15
2017-11-10T20:08:01.730Z,7.72
2017-11-10T20:10:45.894Z,7.68
2017-11-10T20:13:24.488Z,9.35
2017-11-10T20:16:05.511Z,11.15
2017-11-10T20:18:49.021Z,10.05
2017-11-10T20:21:30.258Z,11.45
2017-11-10T20:24:07.930Z,11.95
2017-11-10T20:26:52.784Z,13.73
2017-11-10T20:29:33.396Z,14.40
2017-11-10T20:32:15.033Z,13.82
2017-11-10T20:34:57.028Z,17.98
2017-11-10T20:37:43.660Z,17.17
2017-11-10T20:40:23.373Z,17.17
2017-11-10T20:43:07.592Z,16.62
2017-11-10T20:45:47.975Z,14.70
2017-11-10T20:48:35.785Z,15.73
2017-11-10T20:51:14.961Z,15.93
2017-11-10T20:53:53.372Z,13.40
2017-11-10T20:56:34.066Z,16.05
2017-11-10T20:59:18.158Z,13.60
2017-11-10T21:02:01.895Z,14.68
2017-11-10T21:04:38.180Z,13.82
2017-11-10T21:07:16.075Z,14.55
2017-11-10T21:09:58.144Z,13.88
2017-11-10T21:12:37.264Z,15.18
2017-11-10T21:15:17.197Z,14.23
2017-11-10T21:17:54.892Z,14.30
2017-11-10T21:20:34.021Z,14.43
2017-11-10T21:23:13.973Z,14.68
2017-11-10T21:25:53.434Z,15.30
2017-11-10T21:28:36.900Z,14.52
2017-11-10T21:31:20.657Z,16.00
2017-11-10T21:34:09.422Z,14.87
2017-11-10T21:36:52.649Z,14.80
2017-11-10T21:39:36.278Z,15.20
2017-11-10T21:42:16.694Z,14.80
2017-11-10T21:44:53.383Z,15.93
2017-11-10T21:47:36.673Z,14.48
2017-11-10T21:50:20.580Z,14.87
2017-11-10T21:53:07.972Z,14.20
2017-11-10T21:55:45.715Z,14.87
2017-11-10T21:58:26.612Z,14.80
2017-11-10T22:01:05.280Z,15.30
2017-11-10T22:03:45.215Z,15.88
2017-11-10T22:06:24.167Z,16.48
2017-11-10T22:09:06.428Z,14.87
2017-11-10T22:11:49.530Z,15.70
2017-11-10T22:14:33.863Z,14.38
2017-11-10T22:17:17.810Z,15.57
2017-11-10T22:20:00.350Z,15.85
2017-11-10T22:22:43.574Z,16.58
2017-11-10T22:25:23.736Z,16.35
2017-11-10T22:27:58.824Z,15.77
2017-11-10T22:30:40.164Z,15.20
2017-11-10T22:33:24.701Z,16.70
2017-11-10T22:36:07.696Z,14.50
2017-11-10T22:38:42.765Z,17.08
2017-11-10T22:41:22.065Z,14.35
2017-11-10T22:44:01.754Z,13.65
2017-11-10T22:46:40.135Z,13.52
2017-11-10T22:49:19.717Z,13.05
2017-11-10T22:52:04.040Z,12.85
2017-11-10T22:54:48.246Z,12.80
2017-11-10T22:57:32.847Z,12.52
2017-11-10T23:00:17.050Z,10.73
2017-11-10T23:03:05.743Z,11.80
2017-11-10T23:05:45.381Z,11.07
2017-11-10T23:08:14.504Z,9.65
2017-11-10T23:10:44.244Z,10.00
2017-11-10T23:13:25.281Z,10.27
2017-11-10T23:16:07.916Z,9.98
2017-11-10T23:18:53.247Z,9.90
2017-11-10T23:21:32.714Z,9.43
2017-11-10T23:24:11.780Z,9.15
2017-11-10T23:26:51.164Z,9.75
2017-11-10T23:29:29.020Z,9.02
2017-11-10T23:32:07.748Z,9.95
2017-11-10T23:34:52.377Z,9.68
2017-11-10T23:37:36.441Z,8.48
2017-11-10T23:40:22.046Z,10.73
2017-11-10T23:43:03.408Z,9.20
2017-11-10T23:45:47.030Z,9.23
2017-11-10T23:48:31.088Z,9.77
2017-11-10T23:51:08.822Z,8.07
2017-11-10T23:53:47.704Z,7.97
2017-11-10T23:56:27.893Z,8.82
2017-11-10T23:59:11.984Z,8.25
